Time;durP1;ratioP1;P1;durP2;ratioP2;P2;SDS_P1;SDS_P2;PMS_P1;PMS_P2;Temp;Humidity;BMP_temperature;BMP_pressure;BME280_temperature;BME280_humidity;BME280_pressure;Samples;Min_cycle;Max_cycle;Signal;HPM_P1;HPM_P2
2022/03/28 00:01:44;;;;;;;6.40;4.10;;;7.00;99.90;;;;;;5059320;28;20091;-66
2022/03/28 00:04:09;;;;;;;6.67;3.83;;;7.00;99.90;;;;;;5056217;28;20328;-66
2022/03/28 00:06:35;;;;;;;7.87;4.27;;;7.00;99.90;;;;;;5043142;28;20055;-67
2022/03/28 00:09:00;;;;;;;9.10;4.77;;;6.90;99.90;;;;;;5042335;28;20040;-66
2022/03/28 00:11:27;;;;;;;9.50;5.73;;;6.90;99.90;;;;;;5060212;28;20532;-66
2022/03/28 00:13:53;;;;;;;10.50;4.60;;;6.90;99.90;;;;;;5061178;28;20212;-66
2022/03/28 00:16:18;;;;;;;8.45;5.00;;;6.90;99.90;;;;;;5042229;28;20053;-66
2022/03/28 00:18:44;;;;;;;7.03;4.43;;;6.90;99.90;;;;;;5060957;28;20032;-67
2022/03/28 00:21:10;;;;;;;8.03;4.17;;;7.00;99.90;;;;;;5047006;28;20039;-66
2022/03/28 00:23:35;;;;;;;11.70;5.33;;;6.90;99.90;;;;;;5062120;28;20245;-66
2022/03/28 00:26:01;;;;;;;7.60;4.50;;;6.90;99.90;;;;;;5043390;28;20443;-66
2022/03/28 00:28:26;;;;;;;9.03;4.17;;;6.90;99.90;;;;;;5047846;28;20465;-67
2022/03/28 00:30:53;;;;;;;9.97;4.77;;;6.90;99.90;;;;;;5059759;28;20092;-66
2022/03/28 00:33:18;;;;;;;7.47;4.55;;;6.90;99.90;;;;;;5056968;28;20119;-66
2022/03/28 00:35:44;;;;;;;8.77;4.80;;;6.90;99.90;;;;;;5041152;28;20119;-66
2022/03/28 00:38:11;;;;;;;8.37;4.87;;;6.90;99.90;;;;;;5056224;28;20044;-67
2022/03/28 00:40:37;;;;;;;9.52;4.88;;;6.90;99.90;;;;;;5058568;28;20132;-66
2022/03/28 00:43:05;;;;;;;;;;;7.00;99.90;;;;;;5058945;28;20211;-66
2022/03/28 00:45:31;;;;;;;10.85;4.72;;;7.00;99.90;;;;;;5040643;28;19921;-66
2022/03/28 00:47:58;;;;;;;9.38;4.90;;;7.00;99.90;;;;;;5043019;28;20050;-66
2022/03/28 00:50:24;;;;;;;7.18;4.50;;;7.00;99.90;;;;;;5060826;28;20382;-67
2022/03/28 00:52:50;;;;;;;8.15;4.57;;;7.00;99.90;;;;;;5038664;28;20324;-68
2022/03/28 00:55:17;;;;;;;14.82;5.85;;;6.90;99.90;;;;;;5059637;28;20115;-67
2022/03/28 00:57:42;;;;;;;;;;;6.90;99.90;;;;;;5046886;28;20669;-67
2022/03/28 01:00:12;;;;;;;10.45;5.40;;;6.90;99.90;;;;;;5054446;28;20011;-67
2022/03/28 01:02:38;;;;;;;10.27;5.40;;;6.90;99.90;;;;;;5040598;28;20048;-67
2022/03/28 01:05:05;;;;;;;9.43;5.00;;;6.90;99.90;;;;;;5059580;28;20044;-67
2022/03/28 01:07:30;;;;;;;10.50;5.18;;;6.90;99.90;;;;;;5057295;28;20041;-68
2022/03/28 01:09:59;;;;;;;9.70;4.77;;;7.00;99.90;;;;;;5044153;28;20051;-67
2022/03/28 01:12:30;;;;;;;9.75;4.88;;;6.90;99.90;;;;;;5056347;28;20447;-67
2022/03/28 01:14:56;;;;;;;9.85;5.05;;;6.90;99.90;;;;;;5061251;28;20668;-68
2022/03/28 01:20:06;;;;;;;15.13;5.53;;;6.80;99.90;;;;;;5052048;28;20516;-68
2022/03/28 01:22:32;;;;;;;12.73;5.35;;;7.00;99.90;;;;;;5052031;28;20033;-67
2022/03/28 01:25:04;;;;;;;9.67;5.33;;;6.90;99.90;;;;;;5039333;28;20513;-68
2022/03/28 01:27:31;;;;;;;9.65;5.70;;;6.90;99.90;;;;;;5049683;28;20328;-68
2022/03/28 01:29:56;;;;;;;9.35;5.88;;;7.00;99.90;;;;;;5031085;28;20056;-67
2022/03/28 01:32:22;;;;;;;13.50;5.80;;;6.90;99.90;;;;;;5057475;28;20098;-67
2022/03/28 01:34:48;;;;;;;12.23;5.20;;;6.90;99.90;;;;;;5059663;28;20048;-67
2022/03/28 01:37:13;;;;;;;11.77;5.93;;;6.90;99.90;;;;;;5041169;28;20049;-67
2022/03/28 01:39:39;;;;;;;11.80;6.23;;;6.90;99.90;;;;;;5063811;28;20041;-67
2022/03/28 01:42:05;;;;;;;9.47;5.17;;;6.90;99.90;;;;;;5060410;28;20113;-68
2022/03/28 01:44:31;;;;;;;8.50;5.47;;;6.90;99.90;;;;;;5058814;28;20476;-67
2022/03/28 01:46:56;;;;;;;8.40;4.65;;;6.80;99.90;;;;;;5052725;28;20076;-67
2022/03/28 01:49:22;;;;;;;7.97;4.80;;;6.80;99.90;;;;;;5053337;28;20036;-67
2022/03/28 01:51:50;;;;;;;7.43;4.33;;;6.80;99.90;;;;;;5056824;28;20481;-67
2022/03/28 01:54:17;;;;;;;9.77;4.95;;;6.80;99.90;;;;;;5059416;28;20124;-67
2022/03/28 01:56:43;;;;;;;6.13;4.05;;;6.80;99.90;;;;;;5041975;28;20052;-67
2022/03/28 01:59:09;;;;;;;9.05;4.30;;;6.80;99.90;;;;;;5051586;28;20028;-67
2022/03/28 02:01:36;;;;;;;8.63;4.78;;;6.80;99.90;;;;;;5041496;28;20040;-67
2022/03/28 02:04:02;;;;;;;8.65;4.57;;;6.80;99.90;;;;;;5061613;28;20112;-68
2022/03/28 02:06:32;;;;;;;8.55;3.90;;;6.80;99.90;;;;;;5040795;28;20529;-67
2022/03/28 02:08:58;;;;;;;11.13;5.50;;;6.80;99.90;;;;;;5060892;28;20093;-67
2022/03/28 02:11:23;;;;;;;14.77;5.47;;;6.70;99.90;;;;;;5043580;28;20396;-67
2022/03/28 02:13:51;;;;;;;11.47;5.07;;;6.70;99.90;;;;;;5045358;28;20051;-67
2022/03/28 02:16:17;;;;;;;12.18;4.65;;;6.80;99.90;;;;;;5066137;28;20048;-67
2022/03/28 02:18:43;;;;;;;9.93;5.30;;;6.80;99.90;;;;;;5042705;28;20055;-67
2022/03/28 02:21:09;;;;;;;8.88;4.53;;;6.80;99.90;;;;;;5055190;28;20560;-67
2022/03/28 02:23:34;;;;;;;7.50;4.90;;;6.80;99.90;;;;;;5032082;28;20124;-67
2022/03/28 02:26:00;;;;;;;10.57;4.60;;;6.80;99.90;;;;;;5060570;28;20370;-67
2022/03/28 02:28:26;;;;;;;10.00;4.95;;;6.80;99.90;;;;;;5054700;28;20103;-70
2022/03/28 02:30:53;;;;;;;8.52;4.95;;;6.80;99.90;;;;;;5043002;28;20113;-67
2022/03/28 02:33:19;;;;;;;10.43;5.07;;;6.80;99.90;;;;;;5063971;28;20040;-68
2022/03/28 02:35:45;;;;;;;9.63;4.90;;;6.80;99.90;;;;;;5048912;28;20056;-67
2022/03/28 02:38:11;;;;;;;15.23;5.95;;;6.80;99.90;;;;;;5050400;28;20589;-68
2022/03/28 02:40:37;;;;;;;9.47;5.20;;;6.80;99.90;;;;;;5062726;28;20028;-67
2022/03/28 02:43:03;;;;;;;7.83;5.33;;;6.80;99.90;;;;;;5036874;28;20788;-67
2022/03/28 02:45:32;;;;;;;9.45;5.50;;;6.70;99.90;;;;;;5055780;28;20059;-68
2022/03/28 02:47:59;;;;;;;13.00;5.15;;;6.70;99.90;;;;;;5059790;28;20047;-67
2022/03/28 02:50:28;;;;;;;9.43;5.68;;;6.70;99.90;;;;;;5019120;28;20047;-68
2022/03/28 02:52:54;;;;;;;9.93;5.60;;;6.70;99.90;;;;;;5056928;28;20051;-68
2022/03/28 02:55:21;;;;;;;8.05;4.82;;;6.70;99.90;;;;;;5037121;28;20036;-67
2022/03/28 02:57:47;;;;;;;14.68;6.07;;;6.70;99.90;;;;;;5042519;28;20268;-67
2022/03/28 03:00:13;;;;;;;8.23;4.68;;;6.70;99.90;;;;;;5061433;28;20120;-68
2022/03/28 03:02:39;;;;;;;9.20;5.30;;;6.70;99.90;;;;;;5043373;28;20516;-67
2022/03/28 03:05:06;;;;;;;12.07;4.97;;;6.70;99.90;;;;;;5059128;28;20516;-67
2022/03/28 03:07:32;;;;;;;7.53;4.63;;;6.70;99.90;;;;;;5064479;28;20174;-67
2022/03/28 03:09:58;;;;;;;7.30;4.72;;;6.70;99.90;;;;;;5061183;28;20548;-68
2022/03/28 03:12:24;;;;;;;11.33;5.60;;;6.60;99.90;;;;;;5061056;28;20036;-68
2022/03/28 03:14:51;;;;;;;9.57;5.93;;;6.60;99.90;;;;;;5053439;28;20045;-67
2022/03/28 03:17:17;;;;;;;9.98;5.38;;;6.60;99.90;;;;;;5059215;28;20231;-68
2022/03/28 03:19:44;;;;;;;10.87;5.67;;;6.60;99.90;;;;;;5045298;28;20404;-68
2022/03/28 03:22:10;;;;;;;9.48;5.05;;;6.60;99.90;;;;;;5045126;28;20063;-68
2022/03/28 03:24:38;;;;;;;9.68;5.82;;;6.60;99.90;;;;;;5037355;28;20049;-68
2022/03/28 03:27:04;;;;;;;9.50;5.47;;;6.60;99.90;;;;;;5062677;28;20056;-68
2022/03/28 03:29:29;;;;;;;11.97;5.77;;;6.60;99.90;;;;;;5040833;28;20036;-68
2022/03/28 03:31:55;;;;;;;15.40;6.30;;;6.50;99.90;;;;;;5058864;28;20323;-68
2022/03/28 03:34:20;;;;;;;14.67;5.67;;;6.50;99.90;;;;;;5044829;28;20044;-68
2022/03/28 03:36:46;;;;;;;13.30;6.93;;;6.50;99.90;;;;;;5046391;28;20043;-68
2022/03/28 03:39:12;;;;;;;14.83;6.20;;;6.50;99.90;;;;;;5037442;28;20694;-68
2022/03/28 03:41:38;;;;;;;12.60;6.00;;;6.50;99.90;;;;;;5035710;28;20154;-68
2022/03/28 03:44:06;;;;;;;11.05;6.40;;;6.50;99.90;;;;;;5042076;28;20048;-68
2022/03/28 03:46:32;;;;;;;9.13;5.78;;;6.50;99.90;;;;;;5044125;28;20040;-68
2022/03/28 03:48:58;;;;;;;10.07;5.50;;;6.50;99.90;;;;;;5062116;28;20109;-68
2022/03/28 03:51:24;;;;;;;12.27;6.47;;;6.50;99.90;;;;;;5059720;28;20040;-68
2022/03/28 03:53:49;;;;;;;24.63;10.33;;;6.50;99.90;;;;;;5056752;28;20044;-68
2022/03/28 03:56:15;;;;;;;26.93;9.60;;;6.50;99.90;;;;;;5056235;28;20089;-68
2022/03/28 03:58:41;;;;;;;20.20;9.20;;;6.50;99.90;;;;;;5036119;28;20035;-68
2022/03/28 04:01:08;;;;;;;13.13;7.43;;;6.50;99.90;;;;;;5056093;28;20484;-68
2022/03/28 04:03:35;;;;;;;16.35;7.53;;;6.50;99.90;;;;;;5041393;28;20068;-68
2022/03/28 04:06:00;;;;;;;;;;;6.50;99.90;;;;;;5057041;28;20041;-67
2022/03/28 04:08:29;;;;;;;14.05;6.40;;;6.50;99.90;;;;;;5037145;28;19955;-68
2022/03/28 04:10:55;;;;;;;13.15;6.82;;;6.50;99.90;;;;;;5064057;28;20205;-68
2022/03/28 04:13:22;;;;;;;12.98;6.68;;;6.40;99.90;;;;;;5061575;28;20048;-68
2022/03/28 04:15:48;;;;;;;14.13;6.55;;;6.40;99.90;;;;;;5063702;28;20033;-67
2022/03/28 04:18:14;;;;;;;13.15;6.32;;;6.50;99.90;;;;;;5059594;28;20041;-67
2022/03/28 04:20:40;;;;;;;11.30;6.13;;;6.50;99.90;;;;;;5044034;28;20039;-68
2022/03/28 04:23:05;;;;;;;16.83;7.50;;;6.50;99.90;;;;;;5041106;28;20037;-68
2022/03/28 04:25:31;;;;;;;13.83;6.80;;;6.50;99.90;;;;;;5054576;28;20090;-68
2022/03/28 04:27:57;;;;;;;11.43;6.78;;;6.50;99.90;;;;;;5048813;28;20041;-68
2022/03/28 04:30:23;;;;;;;12.13;7.07;;;6.50;99.90;;;;;;5056399;28;20044;-67
2022/03/28 04:32:49;;;;;;;11.25;6.55;;;6.50;99.90;;;;;;5043191;28;20071;-67
2022/03/28 04:35:14;;;;;;;16.25;6.95;;;6.50;99.90;;;;;;5060333;28;20487;-68
2022/03/28 04:37:42;;;;;;;12.07;6.57;;;6.50;99.90;;;;;;5042624;28;20048;-69
2022/03/28 04:40:11;;;;;;;8.95;5.38;;;6.50;99.90;;;;;;5042354;28;20113;-68
2022/03/28 04:42:36;;;;;;;11.57;5.75;;;6.40;99.90;;;;;;5057607;28;20384;-68
2022/03/28 04:45:04;;;;;;;8.80;5.47;;;6.40;99.90;;;;;;5057440;28;20069;-68
2022/03/28 04:47:30;;;;;;;13.45;5.45;;;6.40;99.90;;;;;;5040711;28;20045;-68
2022/03/28 04:49:56;;;;;;;10.38;5.10;;;6.40;99.90;;;;;;5056164;28;20433;-68
2022/03/28 04:52:22;;;;;;;10.50;5.38;;;6.40;99.90;;;;;;5056142;28;20044;-68
2022/03/28 04:54:47;;;;;;;10.80;5.47;;;6.40;99.90;;;;;;5057135;28;20457;-68
2022/03/28 04:57:13;;;;;;;10.43;5.53;;;6.40;99.90;;;;;;5060084;28;20036;-68
2022/03/28 04:59:40;;;;;;;9.02;5.53;;;6.30;99.90;;;;;;5037689;28;20263;-68
2022/03/28 05:02:06;;;;;;;12.03;5.83;;;6.30;99.90;;;;;;5059336;28;20295;-68
2022/03/28 05:04:32;;;;;;;9.75;6.13;;;6.30;99.90;;;;;;5039544;28;20036;-68
2022/03/28 05:06:58;;;;;;;11.88;5.40;;;6.30;99.90;;;;;;5056202;28;20086;-68
2022/03/28 05:09:24;;;;;;;12.88;5.35;;;6.30;99.90;;;;;;5054534;28;20040;-68
2022/03/28 05:11:49;;;;;;;12.02;5.80;;;6.30;99.90;;;;;;5061869;28;20107;-67
2022/03/28 05:14:15;;;;;;;9.67;5.80;;;6.30;99.90;;;;;;5056156;28;20132;-67
2022/03/28 05:16:41;;;;;;;11.93;6.83;;;6.30;99.90;;;;;;5057116;28;20029;-68
2022/03/28 05:19:06;;;;;;;15.03;7.17;;;6.30;99.90;;;;;;5041111;28;20045;-68
2022/03/28 05:21:32;;;;;;;12.77;6.40;;;6.30;99.90;;;;;;5056060;28;20039;-68
2022/03/28 05:23:58;;;;;;;14.90;5.97;;;6.40;99.90;;;;;;5061602;28;20529;-68
2022/03/28 05:26:23;;;;;;;12.13;6.90;;;6.40;99.90;;;;;;5057975;28;20033;-68
2022/03/28 05:28:49;;;;;;;12.30;6.00;;;6.40;99.90;;;;;;5054855;28;20033;-68
2022/03/28 05:31:14;;;;;;;11.57;6.37;;;6.40;99.90;;;;;;5060187;28;20063;-67
2022/03/28 05:33:40;;;;;;;13.83;6.23;;;6.40;99.90;;;;;;5058783;28;20496;-67
2022/03/28 05:36:07;;;;;;;12.98;6.63;;;6.40;99.90;;;;;;5018137;28;20166;-72
2022/03/28 05:38:35;;;;;;;13.55;6.50;;;6.40;99.90;;;;;;5058026;28;20041;-73
2022/03/28 05:41:04;;;;;;;14.13;7.03;;;6.40;99.90;;;;;;5045902;28;20515;-74
2022/03/28 05:43:30;;;;;;;12.70;6.05;;;6.40;99.90;;;;;;5033147;28;20459;-71
2022/03/28 05:45:56;;;;;;;13.40;6.37;;;6.40;99.90;;;;;;5066588;28;20099;-71
2022/03/28 05:48:22;;;;;;;16.97;6.07;;;6.40;99.90;;;;;;5063426;28;20723;-71
2022/03/28 05:50:49;;;;;;;11.02;5.90;;;6.40;99.90;;;;;;5051108;28;20040;-70
2022/03/28 05:53:15;;;;;;;11.48;6.07;;;6.40;99.90;;;;;;5070703;28;20489;-71
2022/03/28 05:55:41;;;;;;;16.70;6.70;;;6.40;99.90;;;;;;5052745;28;20135;-71
2022/03/28 05:58:08;;;;;;;12.35;6.78;;;6.40;99.90;;;;;;5058397;28;20251;-71
2022/03/28 06:00:38;;;;;;;14.85;6.05;;;6.40;99.90;;;;;;5060810;28;20565;-70
2022/03/28 06:03:10;;;;;;;8.98;5.03;;;6.30;99.90;;;;;;5067121;28;20032;-72
2022/03/28 06:05:36;;;;;;;10.45;4.47;;;6.30;99.90;;;;;;5029020;28;20496;-70
2022/03/28 06:08:03;;;;;;;10.60;5.40;;;6.30;99.90;;;;;;5043849;28;20119;-68
2022/03/28 06:10:29;;;;;;;11.77;5.45;;;6.30;99.90;;;;;;5066659;28;20072;-68
2022/03/28 06:12:55;;;;;;;9.57;5.22;;;6.40;99.90;;;;;;5046495;28;20071;-69
2022/03/28 06:15:21;;;;;;;11.73;6.37;;;6.30;99.90;;;;;;5063277;28;20540;-68
2022/03/28 06:17:46;;;;;;;11.18;5.15;;;6.30;99.90;;;;;;5046032;28;20318;-68
2022/03/28 06:20:13;;;;;;;12.73;6.30;;;6.30;99.90;;;;;;5058567;28;20313;-68
2022/03/28 06:22:38;;;;;;;11.75;6.25;;;6.30;99.90;;;;;;5045381;28;20033;-68
2022/03/28 06:25:05;;;;;;;11.30;6.03;;;6.30;99.90;;;;;;5051617;28;20512;-68
2022/03/28 06:27:31;;;;;;;11.50;4.78;;;6.30;99.90;;;;;;5061615;28;20401;-69
2022/03/28 06:29:56;;;;;;;10.43;4.50;;;6.30;99.90;;;;;;5043498;28;20049;-69
2022/03/28 06:32:22;;;;;;;11.70;5.13;;;6.30;99.90;;;;;;5057421;28;20075;-70
2022/03/28 06:34:48;;;;;;;10.27;4.40;;;6.30;99.90;;;;;;5041941;28;20040;-70
2022/03/28 06:37:16;;;;;;;8.93;4.93;;;6.30;99.90;;;;;;5044525;28;20306;-68
2022/03/28 06:39:42;;;;;;;9.63;3.10;;;6.30;99.90;;;;;;5047525;28;20076;-68
2022/03/28 06:42:08;;;;;;;6.72;3.60;;;6.30;99.90;;;;;;5049203;28;20036;-68
2022/03/28 06:44:34;;;;;;;7.15;3.20;;;6.30;99.90;;;;;;5041989;28;20036;-68
2022/03/28 06:47:01;;;;;;;6.18;2.80;;;6.30;99.90;;;;;;5061059;28;20032;-68
2022/03/28 06:49:26;;;;;;;6.78;3.40;;;6.30;99.90;;;;;;5047122;28;20143;-68
2022/03/28 06:51:52;;;;;;;5.63;2.73;;;6.30;99.90;;;;;;5044531;28;20806;-68
2022/03/28 06:54:19;;;;;;;4.17;2.17;;;6.40;99.90;;;;;;5041592;28;20049;-68
2022/03/28 06:56:46;;;;;;;3.53;2.10;;;6.30;99.90;;;;;;5061535;28;20307;-68
2022/03/28 06:59:12;;;;;;;;;;;6.30;99.90;;;;;;5037878;28;20483;-68
2022/03/28 07:01:38;;;;;;;4.50;1.63;;;6.30;99.90;;;;;;5063938;28;19917;-68
2022/03/28 07:04:05;;;;;;;4.07;1.70;;;6.30;99.90;;;;;;5025808;28;20049;-68
2022/03/28 07:06:31;;;;;;;2.92;1.20;;;6.30;99.90;;;;;;5061280;28;20404;-68
2022/03/28 07:08:57;;;;;;;3.08;1.40;;;6.40;99.90;;;;;;5041991;28;20048;-68
2022/03/28 07:11:22;;;;;;;3.47;1.27;;;6.40;99.90;;;;;;5062472;28;20032;-68
2022/03/28 07:13:48;;;;;;;3.50;1.40;;;6.30;99.90;;;;;;5058070;28;20039;-68
2022/03/28 07:16:13;;;;;;;3.63;1.47;;;6.40;99.90;;;;;;5055717;28;20041;-69
2022/03/28 07:18:39;;;;;;;3.63;1.60;;;6.40;99.90;;;;;;5062830;28;20041;-68
2022/03/28 07:21:06;;;;;;;3.58;1.70;;;6.40;99.90;;;;;;5060799;28;20116;-68
2022/03/28 07:23:31;;;;;;;3.17;1.42;;;6.40;99.90;;;;;;5039077;28;20089;-68
2022/03/28 07:25:57;;;;;;;3.63;1.77;;;6.40;99.90;;;;;;5042663;28;20094;-68
2022/03/28 07:28:23;;;;;;;3.60;1.50;;;6.50;99.90;;;;;;5030039;28;20032;-68
2022/03/28 07:30:48;;;;;;;4.27;1.90;;;6.50;99.90;;;;;;5044653;28;20058;-68
2022/03/28 07:33:14;;;;;;;3.50;1.60;;;6.60;99.90;;;;;;5053436;28;20045;-68
2022/03/28 07:35:41;;;;;;;4.90;2.43;;;6.60;99.90;;;;;;5039016;28;20404;-68
2022/03/28 07:38:10;;;;;;;5.13;1.98;;;6.70;99.90;;;;;;5038692;28;20056;-68
2022/03/28 07:40:40;;;;;;;3.85;1.83;;;6.70;99.90;;;;;;5059799;28;20469;-68
2022/03/28 07:43:07;;;;;;;4.78;2.08;;;6.70;99.90;;;;;;5062285;28;20436;-68
2022/03/28 07:45:33;;;;;;;;;;;6.80;99.90;;;;;;5037906;28;20124;-68
2022/03/28 07:47:58;;;;;;;3.92;2.15;;;6.80;99.90;;;;;;5061145;28;20003;-68
2022/03/28 07:50:24;;;;;;;5.60;2.23;;;6.80;99.90;;;;;;5061912;28;20047;-68
2022/03/28 07:52:50;;;;;;;3.97;2.10;;;6.80;99.90;;;;;;5057626;28;20572;-68
2022/03/28 07:55:17;;;;;;;5.35;2.70;;;6.90;99.90;;;;;;5059551;28;20103;-68
2022/03/28 07:57:43;;;;;;;6.38;3.15;;;6.90;99.90;;;;;;5033716;28;20054;-68
2022/03/28 08:00:10;;;;;;;;;;;7.00;99.90;;;;;;5039634;28;20048;-68
2022/03/28 08:02:37;;;;;;;5.20;2.50;;;7.00;99.90;;;;;;5057554;28;19924;-68
2022/03/28 08:05:04;;;;;;;6.68;2.88;;;7.00;99.90;;;;;;5036310;28;20296;-68
2022/03/28 08:07:30;;;;;;;6.88;3.10;;;7.00;99.90;;;;;;5040666;28;20076;-68
2022/03/28 08:09:55;;;;;;;6.40;3.30;;;6.90;99.90;;;;;;5042204;28;20071;-68
2022/03/28 08:12:21;;;;;;;7.00;3.33;;;6.90;99.90;;;;;;5056822;28;20065;-68
2022/03/28 08:14:49;;;;;;;8.43;3.33;;;7.00;99.90;;;;;;5064184;28;20583;-68
2022/03/28 08:17:14;;;;;;;6.25;3.30;;;6.90;99.90;;;;;;5058548;28;20501;-68
2022/03/28 08:19:40;;;;;;;6.53;3.53;;;7.00;99.90;;;;;;5042256;28;20078;-68
2022/03/28 08:22:05;;;;;;;7.67;4.43;;;7.00;99.90;;;;;;5059071;28;20040;-68
2022/03/28 08:24:31;;;;;;;7.47;3.97;;;7.10;99.90;;;;;;5065843;28;20032;-68
2022/03/28 08:26:57;;;;;;;8.03;3.93;;;7.10;99.90;;;;;;5045442;28;20060;-68
2022/03/28 08:29:22;;;;;;;6.63;4.20;;;7.10;99.90;;;;;;5032781;28;20052;-68
2022/03/28 08:31:48;;;;;;;5.37;3.40;;;7.20;99.90;;;;;;5064490;28;20074;-68
2022/03/28 08:34:14;;;;;;;7.13;3.78;;;7.20;99.90;;;;;;5059315;28;20036;-68
2022/03/28 08:36:40;;;;;;;7.03;3.90;;;7.20;99.90;;;;;;5060019;28;20037;-68
2022/03/28 08:39:06;;;;;;;6.47;3.60;;;7.20;99.90;;;;;;5040773;28;20044;-68
2022/03/28 08:41:33;;;;;;;7.72;4.68;;;7.20;99.90;;;;;;5057591;28;20966;-68
2022/03/28 08:44:00;;;;;;;7.45;4.55;;;7.20;99.90;;;;;;5059472;28;20447;-68
2022/03/28 08:46:27;;;;;;;7.50;4.10;;;7.20;99.90;;;;;;5038664;28;20040;-69
2022/03/28 08:48:54;;;;;;;8.38;4.88;;;7.30;99.90;;;;;;5042191;28;20526;-70
2022/03/28 08:51:20;;;;;;;7.20;4.18;;;7.30;99.90;;;;;;5038687;28;20041;-69
2022/03/28 08:53:46;;;;;;;6.85;4.45;;;7.30;99.90;;;;;;5055907;28;20037;-73
2022/03/28 08:56:12;;;;;;;6.82;4.63;;;7.40;99.90;;;;;;5037599;28;20032;-82
2022/03/28 08:58:38;;;;;;;7.40;4.78;;;7.40;99.90;;;;;;5059221;28;20598;-69
2022/03/28 09:01:05;;;;;;;7.97;4.53;;;7.40;99.90;;;;;;5059693;28;20052;-69
2022/03/28 09:03:39;;;;;;;12.98;5.47;;;7.40;99.90;;;;;;5061936;28;20295;-69
2022/03/28 09:06:34;;;;;;;10.55;6.15;;;7.40;99.90;;;;;;5035806;28;20041;-69
2022/03/28 09:09:24;;;;;;;8.98;5.60;;;7.40;99.90;;;;;;5055549;28;20430;-68
2022/03/28 09:11:58;;;;;;;8.80;5.68;;;7.50;99.90;;;;;;5027253;28;20094;-68
2022/03/28 09:14:28;;;;;;;9.80;5.15;;;7.60;99.90;;;;;;5049253;28;20051;-68
2022/03/28 09:16:58;;;;;;;10.80;5.63;;;7.70;99.90;;;;;;5052804;28;20131;-69
2022/03/28 09:19:24;;;;;;;11.25;5.75;;;7.70;99.90;;;;;;5037889;28;20037;-68
2022/03/28 09:21:50;;;;;;;10.50;6.03;;;7.80;99.90;;;;;;5042387;28;20098;-69
2022/03/28 09:24:16;;;;;;;8.63;5.32;;;7.80;99.90;;;;;;5041294;28;20140;-68
2022/03/28 09:26:42;;;;;;;9.53;5.70;;;7.80;99.90;;;;;;5045535;28;20140;-69
2022/03/28 09:29:07;;;;;;;10.67;5.83;;;7.90;99.90;;;;;;5041169;28;20639;-69
2022/03/28 09:31:37;;;;;;;7.97;5.43;;;7.90;99.90;;;;;;5061257;28;20432;-68
2022/03/28 09:34:16;;;;;;;9.10;5.30;;;8.00;99.90;;;;;;5035268;28;20640;-69
2022/03/28 09:36:50;;;;;;;8.35;5.40;;;8.00;99.90;;;;;;5039683;28;20433;-69
2022/03/28 09:39:27;;;;;;;11.20;5.22;;;8.10;99.90;;;;;;5062084;28;20040;-69
2022/03/28 09:42:02;;;;;;;8.07;5.25;;;8.10;99.90;;;;;;5045045;28;20036;-69
2022/03/28 09:44:38;;;;;;;8.35;4.95;;;8.20;99.90;;;;;;5062268;28;20075;-69
2022/03/28 09:47:07;;;;;;;10.25;5.85;;;8.20;99.90;;;;;;5039212;28;20041;-69
2022/03/28 09:49:33;;;;;;;11.73;5.82;;;8.30;99.90;;;;;;5060674;28;20497;-69
2022/03/28 09:52:11;;;;;;;9.55;6.60;;;8.30;99.90;;;;;;5039780;28;20044;-69
2022/03/28 09:54:55;;;;;;;9.75;6.00;;;8.40;99.90;;;;;;5039594;28;20154;-68
2022/03/28 09:57:32;;;;;;;11.40;5.72;;;8.50;99.90;;;;;;5038636;28;20409;-68
2022/03/28 10:00:17;;;;;;;12.23;6.68;;;8.50;99.90;;;;;;5058969;28;20044;-68
2022/03/28 10:02:43;;;;;;;9.25;5.80;;;8.60;99.90;;;;;;5057572;28;20098;-68
2022/03/28 10:08:34;;;;;;;10.57;6.10;;;8.80;99.90;;;;;;4883593;28;20577;-70
2022/03/28 10:11:01;;;;;;;9.75;5.93;;;8.80;99.90;;;;;;5052028;28;20047;-71
2022/03/28 10:13:29;;;;;;;12.43;5.50;;;8.80;99.90;;;;;;5039571;28;20130;-68
2022/03/28 10:16:47;;;;;;;10.13;6.78;;;8.80;99.90;;;;;;4939120;28;20602;-71
2022/03/28 10:19:51;;;;;;;11.20;6.70;;;8.80;99.90;;;;;;4899417;28;20067;-69
2022/03/28 10:22:54;;;;;;;;;;;;;;;;;;;;;
2022/03/28 10:26:36;;;;;;;12.93;6.72;;;9.10;99.90;;;;;;4984520;28;20053;-71
2022/03/28 10:30:04;;;;;;;10.00;6.55;;;9.20;99.90;;;;;;4746505;29;20883;-70
2022/03/28 10:32:46;;;;;;;15.20;6.85;;;9.20;99.90;;;;;;4837623;28;20501;-70
2022/03/28 10:35:18;;;;;;;9.77;6.55;;;9.30;99.90;;;;;;5047403;28;20074;-68
2022/03/28 10:38:51;;;;;;;17.35;7.50;;;9.40;99.90;;;;;;5056947;28;20043;-71
2022/03/28 10:42:24;;;;;;;10.48;6.53;;;9.50;99.90;;;;;;4865112;28;20320;-71
2022/03/28 10:45:25;;;;;;;10.50;6.18;;;9.50;99.90;;;;;;5033335;28;20071;-70
2022/03/28 10:48:41;;;;;;;10.18;6.47;;;9.60;99.90;;;;;;5056514;28;20392;-71
2022/03/28 10:51:39;;;;;;;14.82;6.40;;;9.70;99.90;;;;;;4962312;28;20059;-70
2022/03/28 10:54:53;;;;;;;10.85;6.28;;;9.80;99.90;;;;;;5026639;28;20033;-71
2022/03/28 10:57:34;;;;;;;10.05;6.55;;;9.90;99.90;;;;;;4951605;28;20489;-70
2022/03/28 11:00:09;;;;;;;13.15;7.47;;;10.00;99.90;;;;;;5047089;28;20051;-70
2022/03/28 11:02:43;;;;;;;10.05;6.55;;;10.10;99.90;;;;;;4937249;28;20040;-72
2022/03/28 11:06:04;;;;;;;;;;;;;;;;;;;;;
2022/03/28 11:09:11;;;;;;;12.30;6.60;;;10.30;99.90;;;;;;5008467;28;20080;-70
2022/03/28 11:12:54;;;;;;;;;;;;;;;;;;;;;
2022/03/28 11:15:59;;;;;;;11.45;6.45;;;10.60;99.90;;;;;;5046040;28;20036;-71
2022/03/28 11:19:31;;;;;;;;;;;;;;;;;;;;;
2022/03/28 11:23:42;;;;;;;;;;;;;;;;;;;;;
2022/03/28 11:26:35;;;;;;;11.75;6.82;;;10.90;99.90;;;;;;4919445;28;20550;-69
2022/03/28 11:29:28;;;;;;;13.25;7.63;;;10.90;99.90;;;;;;4986470;28;20107;-69
2022/03/28 11:32:14;;;;;;;9.33;6.47;;;11.00;99.90;;;;;;5046869;28;20933;-68
2022/03/28 11:35:52;;;;;;;12.82;6.97;;;11.10;99.90;;;;;;4999145;28;20637;-68
2022/03/28 11:38:22;;;;;;;11.10;7.30;;;11.30;99.90;;;;;;5030768;28;20052;-70
2022/03/28 11:40:48;;;;;;;9.73;6.47;;;11.40;99.90;;;;;;5052819;22;20386;-69
2022/03/28 11:43:16;;;;;;;11.07;7.47;;;11.50;99.90;;;;;;5019881;28;20448;-69
2022/03/28 11:46:02;;;;;;;10.52;6.65;;;11.50;99.90;;;;;;5000481;28;20413;-72
2022/03/28 11:48:29;;;;;;;11.38;6.85;;;11.60;99.90;;;;;;4907829;28;20256;-72
2022/03/28 11:50:57;;;;;;;11.13;7.38;;;11.70;99.90;;;;;;4996163;28;20036;-71
2022/03/28 11:53:23;;;;;;;11.90;6.95;;;11.70;99.90;;;;;;5013198;28;20494;-71
2022/03/28 11:55:54;;;;;;;10.98;7.05;;;11.80;99.90;;;;;;4922386;28;20350;-71
2022/03/28 11:58:31;;;;;;;11.23;7.55;;;11.90;99.90;;;;;;5029515;28;20100;-70
2022/03/28 12:01:09;;;;;;;11.82;7.32;;;12.10;99.90;;;;;;5012377;28;20029;-70
2022/03/28 12:03:49;;;;;;;12.25;7.63;;;12.40;99.90;;;;;;4941891;28;20812;-72
2022/03/28 12:06:33;;;;;;;10.68;7.35;;;12.60;99.90;;;;;;4903601;28;20314;-71
2022/03/28 12:09:06;;;;;;;11.63;7.18;;;12.70;99.90;;;;;;4928388;28;20468;-71
2022/03/28 12:11:34;;;;;;;13.07;7.35;;;12.80;99.90;;;;;;5027346;28;20047;-71
2022/03/28 12:14:01;;;;;;;9.10;6.28;;;12.90;99.90;;;;;;4952182;28;20381;-72
2022/03/28 12:16:27;;;;;;;14.23;8.15;;;12.90;99.90;;;;;;4989830;28;20030;-71
2022/03/28 12:18:58;;;;;;;10.35;7.22;;;13.00;99.90;;;;;;5017559;28;20394;-72
2022/03/28 12:21:34;;;;;;;10.25;7.45;;;13.10;99.90;;;;;;4895533;28;20280;-71
2022/03/28 12:24:20;;;;;;;10.63;7.18;;;13.20;99.90;;;;;;4922014;28;20580;-72
2022/03/28 12:26:52;;;;;;;9.38;6.68;;;13.30;99.90;;;;;;4889359;28;20568;-71
2022/03/28 12:29:31;;;;;;;10.38;7.32;;;13.50;99.90;;;;;;4907957;28;20389;-72
2022/03/28 12:32:03;;;;;;;12.93;7.85;;;13.60;99.90;;;;;;4956117;28;20045;-71
2022/03/28 12:34:30;;;;;;;11.30;7.82;;;13.70;99.90;;;;;;5018955;28;20485;-71
2022/03/28 12:36:58;;;;;;;13.57;7.75;;;13.60;99.90;;;;;;5021999;28;20200;-71
2022/03/28 12:39:23;;;;;;;13.93;7.35;;;13.80;99.90;;;;;;5022655;28;20049;-71
2022/03/28 12:41:57;;;;;;;10.47;7.30;;;13.80;99.90;;;;;;5023294;28;20048;-70
2022/03/28 12:44:24;;;;;;;13.35;7.95;;;13.90;99.90;;;;;;5010861;28;20038;-71
2022/03/28 12:46:50;;;;;;;13.07;7.78;;;14.10;99.90;;;;;;5019189;28;20083;-71
2022/03/28 12:49:20;;;;;;;14.00;7.90;;;14.20;99.90;;;;;;5018714;28;20055;-70
2022/03/28 12:51:47;;;;;;;13.48;7.55;;;14.40;99.90;;;;;;5018822;28;20038;-71
2022/03/28 12:54:20;;;;;;;12.73;7.38;;;14.60;99.90;;;;;;5023401;28;20095;-71
2022/03/28 12:56:58;;;;;;;15.85;7.53;;;14.80;99.90;;;;;;5020678;28;20049;-71
2022/03/28 12:59:25;;;;;;;11.82;7.18;;;14.70;98.10;;;;;;5019958;28;20368;-70
2022/03/28 13:01:53;;;;;;;11.60;7.63;;;14.80;99.60;;;;;;5002110;28;20502;-70
2022/03/28 13:04:23;;;;;;;11.65;7.72;;;14.80;97.00;;;;;;5020140;28;20037;-71
2022/03/28 13:06:57;;;;;;;12.15;7.85;;;15.00;97.00;;;;;;5011546;28;20038;-71
2022/03/28 13:09:24;;;;;;;9.75;6.68;;;15.10;96.00;;;;;;5003494;28;20042;-71
2022/03/28 13:11:51;;;;;;;11.40;7.57;;;15.10;96.10;;;;;;5018178;28;20064;-70
2022/03/28 13:14:25;;;;;;;10.68;7.60;;;15.10;96.40;;;;;;5011615;28;20525;-71
2022/03/28 13:17:04;;;;;;;9.95;7.18;;;15.20;95.10;;;;;;5017944;28;20042;-71
2022/03/28 13:19:30;;;;;;;13.88;7.40;;;15.30;93.50;;;;;;5020104;28;20041;-71
2022/03/28 13:21:58;;;;;;;13.30;8.88;;;15.40;95.00;;;;;;5008315;28;20072;-71
2022/03/28 13:24:27;;;;;;;13.50;7.75;;;15.40;94.00;;;;;;5019248;28;20509;-71